createdAt,value
2019-03-29T00:01:59.491Z,16.77
2019-03-29T00:04:30.208Z,16.07
2019-03-29T00:07:00.882Z,17.10
2019-03-29T00:09:32.131Z,16.20
2019-03-29T00:12:03.118Z,17.93
2019-03-29T00:14:33.790Z,16.37
2019-03-29T00:17:04.798Z,16.50
2019-03-29T00:19:35.795Z,16.30
2019-03-29T00:22:06.992Z,16.50
2019-03-29T00:24:37.694Z,16.80
2019-03-29T00:27:08.423Z,15.87
2019-03-29T00:29:39.182Z,17.53
2019-03-29T00:32:09.870Z,17.73
2019-03-29T00:34:41.893Z,17.30
2019-03-29T00:37:13.204Z,15.03
2019-03-29T00:39:43.998Z,15.57
2019-03-29T00:42:14.756Z,14.03
2019-03-29T00:44:45.955Z,16.03
2019-03-29T00:47:16.732Z,15.40
2019-03-29T00:49:47.391Z,14.93
2019-03-29T00:52:18.458Z,16.23
2019-03-29T00:54:49.238Z,15.90
2019-03-29T00:57:19.938Z,14.57
2019-03-29T00:59:50.595Z,14.70
2019-03-29T01:02:21.339Z,14.17
2019-03-29T01:04:51.986Z,15.33
2019-03-29T01:07:22.649Z,15.67
2019-03-29T01:09:53.305Z,16.10
2019-03-29T01:12:24.423Z,14.47
2019-03-29T01:14:55.453Z,15.87
2019-03-29T01:17:26.456Z,17.33
2019-03-29T01:19:57.112Z,17.47
2019-03-29T01:22:27.885Z,15.23
2019-03-29T01:24:58.611Z,16.60
2019-03-29T01:27:29.278Z,16.27
2019-03-29T01:30:00.289Z,16.90
2019-03-29T01:32:30.960Z,18.43
2019-03-29T01:35:01.673Z,17.73
2019-03-29T01:37:32.368Z,17.83
2019-03-29T01:40:03.126Z,19.27
2019-03-29T01:42:33.791Z,17.80
2019-03-29T01:45:04.747Z,19.63
2019-03-29T01:47:35.409Z,18.10
2019-03-29T01:50:08.010Z,17.80
2019-03-29T01:52:38.832Z,18.03
2019-03-29T01:55:10.047Z,20.60
2019-03-29T01:57:40.728Z,16.87
2019-03-29T02:00:13.561Z,18.80
2019-03-29T02:02:44.251Z,19.17
2019-03-29T02:05:14.947Z,18.30
2019-03-29T02:07:45.615Z,18.60
2019-03-29T02:10:16.418Z,20.30
2019-03-29T02:12:47.212Z,19.70
2019-03-29T02:15:18.022Z,18.27
2019-03-29T02:17:48.793Z,19.43
2019-03-29T02:20:19.718Z,20.43
2019-03-29T02:22:50.643Z,20.80
2019-03-29T02:25:21.630Z,18.87
2019-03-29T02:27:53.026Z,20.20
2019-03-29T02:30:24.072Z,19.90
2019-03-29T02:32:54.903Z,18.57
2019-03-29T02:35:26.424Z,20.00
2019-03-29T02:37:57.167Z,20.17
2019-03-29T02:40:28.187Z,19.17
2019-03-29T02:42:58.862Z,18.83
2019-03-29T02:45:30.660Z,18.43
2019-03-29T02:48:01.471Z,18.20
2019-03-29T02:50:32.142Z,20.00
2019-03-29T02:53:02.930Z,17.70
2019-03-29T02:55:34.093Z,20.00
2019-03-29T02:58:04.807Z,19.30
2019-03-29T03:00:35.757Z,19.27
2019-03-29T03:03:06.900Z,20.03
2019-03-29T03:05:37.619Z,18.80
2019-03-29T03:08:08.338Z,18.07
2019-03-29T03:10:38.995Z,18.80
2019-03-29T03:13:09.793Z,19.73
2019-03-29T03:15:40.546Z,19.03
2019-03-29T03:18:11.271Z,17.47
2019-03-29T03:20:41.946Z,19.00
2019-03-29T03:23:12.664Z,17.93
2019-03-29T03:25:43.421Z,18.37
2019-03-29T03:28:14.246Z,20.30
2019-03-29T03:30:44.904Z,19.20
2019-03-29T03:33:15.857Z,18.63
2019-03-29T03:35:46.509Z,18.57
2019-03-29T03:38:17.295Z,21.00
2019-03-29T03:40:48.042Z,18.73
2019-03-29T03:43:18.980Z,19.30
2019-03-29T03:45:49.938Z,20.90
2019-03-29T03:48:20.693Z,18.03
2019-03-29T03:50:51.460Z,18.90
2019-03-29T03:53:22.088Z,19.93
2019-03-29T03:55:54.735Z,20.83
2019-03-29T03:58:26.432Z,19.87
2019-03-29T04:00:58.911Z,20.03
2019-03-29T04:03:29.903Z,18.17
2019-03-29T04:06:01.134Z,19.60
2019-03-29T04:08:32.152Z,19.00
2019-03-29T04:11:02.784Z,21.13
2019-03-29T04:13:34.062Z,19.60
2019-03-29T04:16:04.832Z,21.13
2019-03-29T04:18:35.712Z,19.20
2019-03-29T04:21:06.642Z,18.43
2019-03-29T04:23:37.416Z,19.80
2019-03-29T04:26:08.122Z,18.87
2019-03-29T04:28:38.803Z,20.27
2019-03-29T04:31:09.882Z,20.37
2019-03-29T04:33:40.783Z,20.80
2019-03-29T04:36:11.497Z,22.50
2019-03-29T04:38:42.273Z,20.27
2019-03-29T04:41:13.001Z,21.57
2019-03-29T04:43:43.754Z,21.43
2019-03-29T04:46:14.538Z,21.33
2019-03-29T04:48:45.184Z,19.07
2019-03-29T04:51:16.336Z,22.27
2019-03-29T04:53:47.346Z,21.30
2019-03-29T04:56:18.226Z,20.90
2019-03-29T04:58:48.888Z,22.20
2019-03-29T05:01:19.518Z,20.80
2019-03-29T05:03:50.182Z,21.93
2019-03-29T05:06:21.098Z,20.27
2019-03-29T05:08:52.034Z,20.77
2019-03-29T05:11:23.228Z,20.10
2019-03-29T05:13:54.058Z,21.53
2019-03-29T05:16:25.471Z,19.27
2019-03-29T05:18:56.298Z,19.03
2019-03-29T05:21:27.157Z,19.03
2019-03-29T05:23:57.932Z,18.53
2019-03-29T05:26:28.569Z,18.47
2019-03-29T05:28:59.286Z,18.60
2019-03-29T05:31:30.001Z,19.50
2019-03-29T05:34:00.790Z,21.63
2019-03-29T05:36:32.083Z,18.60
2019-03-29T05:39:02.777Z,19.37
2019-03-29T05:41:33.596Z,19.17
2019-03-29T05:44:04.595Z,19.10
2019-03-29T05:46:35.450Z,20.67
2019-03-29T05:49:06.462Z,19.70
2019-03-29T05:51:37.089Z,19.93
2019-03-29T05:54:07.843Z,19.97
2019-03-29T05:56:38.621Z,20.67
2019-03-29T05:59:09.422Z,20.13
2019-03-29T06:01:40.405Z,21.40
2019-03-29T06:04:11.122Z,21.83
2019-03-29T06:06:41.781Z,21.00
2019-03-29T06:09:12.449Z,22.67
2019-03-29T06:11:43.646Z,23.10
2019-03-29T06:14:14.280Z,21.50
2019-03-29T06:16:44.960Z,21.97
2019-03-29T06:19:15.617Z,21.13
2019-03-29T06:21:46.272Z,22.47
2019-03-29T06:24:17.004Z,21.17
2019-03-29T06:26:47.616Z,21.40
2019-03-29T06:29:18.581Z,20.63
2019-03-29T06:31:49.325Z,24.10
2019-03-29T06:34:19.981Z,23.00
2019-03-29T06:36:52.502Z,21.57
2019-03-29T06:39:26.161Z,22.73
2019-03-29T06:41:57.900Z,22.30
2019-03-29T06:44:28.597Z,25.47
2019-03-29T06:46:59.338Z,24.83
2019-03-29T06:49:30.305Z,24.90
2019-03-29T06:52:00.969Z,27.60
2019-03-29T06:54:31.622Z,25.90
2019-03-29T06:57:02.654Z,25.53
2019-03-29T06:59:33.653Z,24.57
2019-03-29T07:02:04.600Z,24.23
2019-03-29T07:04:35.264Z,23.73
2019-03-29T07:07:06.086Z,27.33
2019-03-29T07:09:36.748Z,25.93
2019-03-29T07:12:07.386Z,25.00
2019-03-29T07:14:38.345Z,25.80
2019-03-29T07:17:10.454Z,25.57
2019-03-29T07:19:41.325Z,25.67
2019-03-29T07:22:11.986Z,24.77
2019-03-29T07:24:42.916Z,24.60
2019-03-29T07:27:13.657Z,24.50
2019-03-29T07:29:44.796Z,27.60
2019-03-29T07:32:15.658Z,26.70
2019-03-29T07:34:49.110Z,22.90
2019-03-29T07:37:19.080Z,26.23
2019-03-29T07:39:49.722Z,27.10
2019-03-29T07:42:20.370Z,25.57
2019-03-29T07:44:51.018Z,23.80
2019-03-29T07:47:21.975Z,26.93
2019-03-29T07:49:52.660Z,28.07
2019-03-29T07:52:23.546Z,27.10
2019-03-29T07:54:54.209Z,24.63
2019-03-29T07:57:24.837Z,27.37
2019-03-29T07:59:55.472Z,25.93
2019-03-29T08:02:26.169Z,26.77
2019-03-29T08:04:56.833Z,26.10
2019-03-29T08:07:28.901Z,26.50
2019-03-29T08:10:03.232Z,25.57
2019-03-29T08:12:32.496Z,24.80
2019-03-29T08:15:03.463Z,26.70
2019-03-29T08:17:34.112Z,26.23
2019-03-29T08:20:36.518Z,24.33
2019-03-29T08:22:37.625Z,22.80
2019-03-29T08:25:08.417Z,26.83
2019-03-29T08:27:39.078Z,26.97
2019-03-29T08:30:10.508Z,27.37
2019-03-29T08:32:41.140Z,24.33
2019-03-29T08:35:11.957Z,24.00
2019-03-29T08:37:42.972Z,24.50
2019-03-29T08:40:13.834Z,23.13
2019-03-29T08:42:44.515Z,24.70
2019-03-29T08:45:15.350Z,23.37
2019-03-29T08:47:46.002Z,23.57
2019-03-29T08:50:16.722Z,23.10
2019-03-29T08:52:47.942Z,22.30
2019-03-29T08:55:18.580Z,24.20
2019-03-29T08:57:49.871Z,25.13
2019-03-29T09:00:34.636Z,25.37
2019-03-29T09:03:05.817Z,22.17
2019-03-29T09:05:39.189Z,26.80
2019-03-29T09:08:08.917Z,24.27
2019-03-29T09:10:39.911Z,25.37
2019-03-29T09:13:10.560Z,24.60
2019-03-29T09:15:41.233Z,23.20
2019-03-29T09:18:12.068Z,26.03
2019-03-29T09:20:43.163Z,26.17
2019-03-29T09:23:13.820Z,25.50
2019-03-29T09:25:44.579Z,25.50
2019-03-29T09:28:15.216Z,26.17
2019-03-29T09:30:45.894Z,25.20
2019-03-29T09:33:16.604Z,25.60
2019-03-29T09:35:47.341Z,24.90
2019-03-29T09:38:18.155Z,25.80
2019-03-29T09:40:58.362Z,27.03
2019-03-29T09:43:21.241Z,26.47
2019-03-29T09:45:51.952Z,27.90
2019-03-29T09:48:22.669Z,26.90
2019-03-29T09:50:53.945Z,27.20
2019-03-29T09:53:24.658Z,26.10
2019-03-29T09:55:55.336Z,26.63
2019-03-29T09:58:25.996Z,26.67
2019-03-29T10:00:56.693Z,26.90
2019-03-29T10:03:27.338Z,26.97
2019-03-29T10:05:57.983Z,26.70
2019-03-29T10:08:28.661Z,26.63
2019-03-29T10:10:59.356Z,24.10
2019-03-29T10:13:30.035Z,21.63
2019-03-29T10:16:00.925Z,24.93
2019-03-29T10:18:31.565Z,23.63
2019-03-29T10:21:02.484Z,25.03
2019-03-29T10:23:33.416Z,26.10
2019-03-29T10:26:04.131Z,25.17
2019-03-29T10:28:34.800Z,24.10
2019-03-29T10:31:05.514Z,22.07
2019-03-29T10:33:36.172Z,21.70
2019-03-29T10:36:06.842Z,23.23
2019-03-29T10:38:37.503Z,21.80
2019-03-29T10:41:08.151Z,22.67
2019-03-29T10:43:39.227Z,21.17
2019-03-29T10:46:10.116Z,21.20
2019-03-29T10:48:40.798Z,23.00
2019-03-29T10:51:11.760Z,22.13
2019-03-29T10:53:42.412Z,19.50
2019-03-29T10:56:13.081Z,17.13
2019-03-29T10:58:45.013Z,16.93
2019-03-29T11:01:15.926Z,15.70
2019-03-29T11:03:46.597Z,16.30
2019-03-29T11:06:17.630Z,14.00
2019-03-29T11:08:48.387Z,11.50
2019-03-29T11:11:19.016Z,12.53
2019-03-29T11:13:49.702Z,12.30
2019-03-29T11:16:20.388Z,11.17
2019-03-29T11:18:51.056Z,12.77
2019-03-29T11:21:21.718Z,14.20
2019-03-29T11:23:52.373Z,14.20
2019-03-29T11:26:23.100Z,14.00
2019-03-29T11:28:54.035Z,13.97
2019-03-29T11:31:25.595Z,13.80
2019-03-29T11:33:56.424Z,14.20
2019-03-29T11:36:27.113Z,14.03
2019-03-29T11:38:58.130Z,13.77
2019-03-29T11:41:29.179Z,12.70
2019-03-29T11:44:00.096Z,12.67
2019-03-29T11:46:30.758Z,12.57
2019-03-29T11:49:01.421Z,11.27
2019-03-29T11:51:32.055Z,11.23
2019-03-29T11:54:02.725Z,10.13
2019-03-29T11:56:33.358Z,11.13
2019-03-29T11:59:03.996Z,9.90
2019-03-29T12:01:34.675Z,10.90
2019-03-29T12:04:05.627Z,9.87
2019-03-29T12:06:36.288Z,11.70
2019-03-29T12:09:08.788Z,11.00
2019-03-29T12:11:39.563Z,11.60
2019-03-29T12:14:10.518Z,9.40
2019-03-29T12:16:41.192Z,9.27
2019-03-29T12:19:11.869Z,9.43
2019-03-29T12:21:42.534Z,8.67
2019-03-29T12:24:13.485Z,9.10
2019-03-29T12:26:44.440Z,8.90
2019-03-29T12:29:15.152Z,8.20
2019-03-29T12:31:45.886Z,7.47
2019-03-29T12:34:16.870Z,8.10
2019-03-29T12:36:47.503Z,9.70
2019-03-29T12:39:18.172Z,8.50
2019-03-29T12:41:48.874Z,8.33
2019-03-29T12:44:19.838Z,8.33
2019-03-29T12:46:50.458Z,8.13
2019-03-29T12:49:21.121Z,6.47
2019-03-29T12:51:51.870Z,7.57
2019-03-29T12:54:22.723Z,6.53
2019-03-29T12:56:53.363Z,6.90
2019-03-29T12:59:24.048Z,7.83
2019-03-29T13:01:54.778Z,7.10
2019-03-29T13:04:25.408Z,6.97
2019-03-29T13:06:56.067Z,7.70
2019-03-29T13:09:26.769Z,8.10
2019-03-29T13:11:57.507Z,6.93
2019-03-29T13:14:28.131Z,6.60
2019-03-29T13:16:58.774Z,6.67
2019-03-29T13:19:29.445Z,6.20
2019-03-29T13:22:00.094Z,5.50
2019-03-29T13:24:30.723Z,7.00
2019-03-29T13:27:01.383Z,6.10
2019-03-29T13:29:32.075Z,5.40
2019-03-29T13:32:21.781Z,6.87
2019-03-29T13:34:52.545Z,5.73
2019-03-29T13:37:23.284Z,7.13
2019-03-29T13:39:54.255Z,7.23
2019-03-29T13:42:24.956Z,8.00
2019-03-29T13:44:55.636Z,7.37
2019-03-29T13:47:26.319Z,6.73
2019-03-29T13:49:56.987Z,7.40
2019-03-29T13:52:27.748Z,8.40
2019-03-29T13:54:58.414Z,8.80
2019-03-29T13:57:29.312Z,8.73
2019-03-29T14:00:00.377Z,7.97
2019-03-29T14:02:31.204Z,8.13
2019-03-29T14:05:01.980Z,9.50
2019-03-29T14:07:33.094Z,8.50
2019-03-29T14:10:04.959Z,9.10
2019-03-29T14:12:35.932Z,9.80
2019-03-29T14:15:09.128Z,9.27
2019-03-29T14:17:40.936Z,9.67
2019-03-29T14:20:12.265Z,8.90
2019-03-29T14:22:43.300Z,8.30
2019-03-29T14:25:15.755Z,8.67
2019-03-29T14:27:46.965Z,9.77
2019-03-29T14:30:18.178Z,10.17
2019-03-29T14:32:49.068Z,9.73
2019-03-29T14:35:23.054Z,10.10
2019-03-29T14:37:54.070Z,9.80
2019-03-29T14:40:25.100Z,9.87
2019-03-29T14:42:56.755Z,10.07
2019-03-29T14:45:27.676Z,10.43
2019-03-29T14:47:58.614Z,10.40
2019-03-29T14:50:29.418Z,10.60
2019-03-29T14:53:00.073Z,10.10
2019-03-29T14:55:30.976Z,10.80
2019-03-29T14:58:02.198Z,10.17
2019-03-29T15:00:44.177Z,10.83
2019-03-29T15:03:15.419Z,11.47
2019-03-29T15:05:46.549Z,10.60
2019-03-29T15:08:17.207Z,11.10
2019-03-29T15:10:47.956Z,12.83
2019-03-29T15:13:18.595Z,11.77
2019-03-29T15:15:49.290Z,14.80
2019-03-29T15:18:19.963Z,16.70
2019-03-29T15:20:53.807Z,15.80
2019-03-29T15:23:23.058Z,16.60
2019-03-29T15:25:54.867Z,19.00
2019-03-29T15:28:28.901Z,17.03
2019-03-29T15:31:00.073Z,16.80
2019-03-29T15:33:30.819Z,16.37
2019-03-29T15:36:01.502Z,16.60
2019-03-29T15:38:37.269Z,15.40
2019-03-29T15:41:08.514Z,15.17
2019-03-29T15:43:39.767Z,16.07
2019-03-29T15:46:10.587Z,15.30
2019-03-29T15:48:41.239Z,15.50
2019-03-29T15:51:11.933Z,15.07
2019-03-29T15:53:42.587Z,13.83
2019-03-29T15:56:13.301Z,14.17
2019-03-29T15:58:43.945Z,14.10
2019-03-29T16:01:14.922Z,14.10
2019-03-29T16:03:45.617Z,23.60
2019-03-29T16:06:16.370Z,25.17
2019-03-29T16:08:47.144Z,24.00
2019-03-29T16:11:17.800Z,26.77
2019-03-29T16:13:48.463Z,27.10
2019-03-29T16:16:19.129Z,29.43
2019-03-29T16:18:50.906Z,27.63
2019-03-29T16:21:21.636Z,26.57
2019-03-29T16:23:52.261Z,26.73
2019-03-29T16:26:22.966Z,27.60
2019-03-29T16:28:53.720Z,26.10
2019-03-29T16:31:24.404Z,24.80
2019-03-29T16:33:55.365Z,26.97
2019-03-29T16:36:26.409Z,24.20
2019-03-29T16:38:57.124Z,23.17
2019-03-29T16:41:27.782Z,23.47
2019-03-29T16:43:58.540Z,25.20
2019-03-29T16:46:29.231Z,28.20
2019-03-29T16:48:59.880Z,28.63
2019-03-29T16:51:30.563Z,28.47
2019-03-29T16:54:01.254Z,27.87
2019-03-29T16:56:31.936Z,29.90
2019-03-29T16:59:02.569Z,30.40
2019-03-29T17:01:33.234Z,30.37
2019-03-29T17:04:03.980Z,32.40
2019-03-29T17:06:34.754Z,33.60
2019-03-29T17:09:07.283Z,33.67
2019-03-29T17:11:37.960Z,35.13
2019-03-29T17:14:08.807Z,34.20
2019-03-29T17:16:39.495Z,36.57
2019-03-29T17:19:10.189Z,34.90
2019-03-29T17:21:40.841Z,36.87
2019-03-29T17:24:11.860Z,36.17
2019-03-29T17:26:45.187Z,37.80
2019-03-29T17:29:15.868Z,37.73
2019-03-29T17:31:49.954Z,39.10
2019-03-29T17:34:20.834Z,37.93
2019-03-29T17:36:51.769Z,38.20
2019-03-29T17:39:22.474Z,37.83
2019-03-29T17:41:53.147Z,40.80
2019-03-29T17:44:23.999Z,38.90
2019-03-29T17:46:54.679Z,40.17
2019-03-29T17:49:25.377Z,39.27
2019-03-29T17:51:56.375Z,40.80
2019-03-29T17:54:27.154Z,41.87
2019-03-29T17:56:58.313Z,40.47
2019-03-29T17:59:29.065Z,41.50
2019-03-29T18:02:09.268Z,41.17
2019-03-29T18:04:32.547Z,41.07
2019-03-29T18:07:03.450Z,41.80
2019-03-29T18:09:34.100Z,42.63
2019-03-29T18:12:05.021Z,41.43
2019-03-29T18:14:35.989Z,46.13
2019-03-29T18:17:06.993Z,44.80
2019-03-29T18:19:37.817Z,43.13
2019-03-29T18:22:08.515Z,41.40
2019-03-29T18:24:39.190Z,41.97
2019-03-29T18:27:09.876Z,41.70
2019-03-29T18:29:41.377Z,43.07
2019-03-29T18:32:12.290Z,45.70
2019-03-29T18:34:43.741Z,41.47
2019-03-29T18:37:15.894Z,40.47
2019-03-29T18:39:47.220Z,39.63
2019-03-29T18:42:17.991Z,40.50
2019-03-29T18:44:49.010Z,41.37
2019-03-29T18:47:19.780Z,43.60
2019-03-29T18:49:50.538Z,42.07
2019-03-29T18:52:21.329Z,40.63
2019-03-29T18:54:52.130Z,42.80
2019-03-29T18:57:22.880Z,40.90
2019-03-29T18:59:53.643Z,40.40
2019-03-29T19:02:24.294Z,40.90
2019-03-29T19:04:54.998Z,40.17
2019-03-29T19:07:30.658Z,42.30
2019-03-29T19:10:01.829Z,40.37
2019-03-29T19:12:32.722Z,42.60
2019-03-29T19:15:03.411Z,40.57
2019-03-29T19:17:34.166Z,42.83
2019-03-29T19:20:10.374Z,42.20
2019-03-29T19:22:37.793Z,41.67
2019-03-29T19:25:08.930Z,39.93
2019-03-29T19:27:39.711Z,42.00
2019-03-29T19:30:11.514Z,38.53
2019-03-29T19:32:42.204Z,41.60
2019-03-29T19:35:13.273Z,39.40
2019-03-29T19:37:44.466Z,40.50
2019-03-29T19:40:15.580Z,40.00
2019-03-29T19:42:46.323Z,40.63
2019-03-29T19:45:18.716Z,40.40
2019-03-29T19:47:49.643Z,42.00
2019-03-29T19:50:20.748Z,39.63
2019-03-29T19:52:51.429Z,39.90
2019-03-29T19:55:22.412Z,39.13
2019-03-29T19:57:53.149Z,38.10
2019-03-29T20:00:37.609Z,39.70
2019-03-29T20:03:08.748Z,41.57
2019-03-29T20:05:39.797Z,41.67
2019-03-29T20:08:10.564Z,41.07
2019-03-29T20:10:41.476Z,43.37
2019-03-29T20:13:12.160Z,44.17
2019-03-29T20:15:42.940Z,43.97
2019-03-29T20:18:13.873Z,41.73
2019-03-29T20:20:44.616Z,44.13
2019-03-29T20:23:15.290Z,40.70
2019-03-29T20:25:45.944Z,40.57
2019-03-29T20:28:16.637Z,42.97
2019-03-29T20:30:47.381Z,41.07
2019-03-29T20:33:18.054Z,42.97
2019-03-29T20:35:48.836Z,40.90
2019-03-29T20:38:19.480Z,40.90
2019-03-29T20:40:50.155Z,42.77
2019-03-29T20:43:20.827Z,39.63
2019-03-29T20:45:51.517Z,40.50
2019-03-29T20:48:22.199Z,39.43
2019-03-29T20:50:53.179Z,39.87
2019-03-29T20:53:23.887Z,40.43
2019-03-29T20:55:58.154Z,39.20
2019-03-29T20:58:27.688Z,40.63
2019-03-29T21:00:59.271Z,40.90
2019-03-29T21:03:30.113Z,40.80
2019-03-29T21:06:00.795Z,41.33
2019-03-29T21:08:31.715Z,40.20
2019-03-29T21:11:02.335Z,38.93
2019-03-29T21:13:33.003Z,38.00
2019-03-29T21:16:03.658Z,40.00
2019-03-29T21:18:34.316Z,39.13
2019-03-29T21:21:04.957Z,37.17
2019-03-29T21:23:35.599Z,37.93
2019-03-29T21:26:06.255Z,37.67
2019-03-29T21:28:36.933Z,38.00
2019-03-29T21:31:07.599Z,35.27
2019-03-29T21:33:40.777Z,38.37
2019-03-29T21:36:10.769Z,35.93
2019-03-29T21:38:41.615Z,37.23
2019-03-29T21:41:12.341Z,35.80
2019-03-29T21:43:44.336Z,37.17
2019-03-29T21:46:15.022Z,37.00
2019-03-29T21:48:46.176Z,35.60
2019-03-29T21:51:16.956Z,36.97
2019-03-29T21:53:47.604Z,36.73
2019-03-29T21:56:18.331Z,36.47
2019-03-29T21:58:49.005Z,36.10
2019-03-29T22:01:20.271Z,37.07
2019-03-29T22:03:51.038Z,36.37
2019-03-29T22:06:21.737Z,35.83
2019-03-29T22:08:52.719Z,37.17
2019-03-29T22:11:23.552Z,37.37
2019-03-29T22:13:54.219Z,36.90
2019-03-29T22:16:25.163Z,36.10
2019-03-29T22:18:55.974Z,34.57
2019-03-29T22:21:26.716Z,38.13
2019-03-29T22:23:57.725Z,37.47
2019-03-29T22:26:28.399Z,37.90
2019-03-29T22:28:59.045Z,37.60
2019-03-29T22:31:29.859Z,35.07
2019-03-29T22:34:00.544Z,37.63
2019-03-29T22:36:31.214Z,39.70
2019-03-29T22:39:01.935Z,37.40
2019-03-29T22:41:32.981Z,39.27
2019-03-29T22:44:03.725Z,38.37
2019-03-29T22:46:35.047Z,38.67
2019-03-29T22:49:06.174Z,38.60
2019-03-29T22:51:36.858Z,38.27
2019-03-29T22:54:07.612Z,39.53
2019-03-29T22:56:38.426Z,38.17
2019-03-29T22:59:09.094Z,37.40
2019-03-29T23:01:45.572Z,38.80
2019-03-29T23:04:18.414Z,38.73
2019-03-29T23:06:49.146Z,36.87
2019-03-29T23:09:19.800Z,35.33
2019-03-29T23:11:50.775Z,37.30
2019-03-29T23:14:21.456Z,39.23
2019-03-29T23:16:53.319Z,38.70
2019-03-29T23:19:24.399Z,38.27
2019-03-29T23:21:55.107Z,36.10
2019-03-29T23:24:26.065Z,37.70
2019-03-29T23:26:56.759Z,35.83
2019-03-29T23:29:27.405Z,37.30
2019-03-29T23:31:58.091Z,37.40
2019-03-29T23:34:29.040Z,37.23
2019-03-29T23:36:59.747Z,37.37
2019-03-29T23:39:30.650Z,35.97
2019-03-29T23:42:01.298Z,34.50
2019-03-29T23:44:31.957Z,36.20
2019-03-29T23:47:02.665Z,38.37
2019-03-29T23:49:33.616Z,38.50
2019-03-29T23:52:04.627Z,37.80
2019-03-29T23:54:35.867Z,36.20
2019-03-29T23:57:06.659Z,34.40
2019-03-29T23:59:37.646Z,36.13
